Aviation Digital Data Service (ADDS)

Output produced by TAFs form (0809 UTC 23 November 2014)
found at http://aviationweather.gov/adds/tafs/
 
KHOB 230538Z 2306/2406 26011KT P6SM FEW200 
     FM230900 26015KT P6SM SCT200 
     FM231700 29023G31KT P6SM SCT200 
     FM240000 32013KT P6SM SKC